Time;durP1;ratioP1;P1;durP2;ratioP2;P2;SDS_P1;SDS_P2;PMS_P1;PMS_P2;Temp;Humidity;BMP_temperature;BMP_pressure;BME280_temperature;BME280_humidity;BME280_pressure;Samples;Min_cycle;Max_cycle;Signal;HPM_P1;HPM_P2
2023/10/24 00:00:15;;;;;;;4.53;1.63;;;;;;;15.32;46.36;94057.84;4997375;28;20084;-76
2023/10/24 00:02:41;;;;;;;6.55;1.88;;;;;;;15.44;46.52;94084.69;5012423;28;20040;-77
2023/10/24 00:05:07;;;;;;;9.13;2.00;;;;;;;15.42;46.05;94081.50;5012135;28;20029;-76
2023/10/24 00:07:32;;;;;;;11.23;2.10;;;;;;;15.17;46.56;94055.06;5015866;28;20029;-76
2023/10/24 00:09:58;;;;;;;8.35;2.40;;;;;;;15.16;46.29;94069.56;5012830;28;20617;-75
2023/10/24 00:12:23;;;;;;;5.97;2.30;;;;;;;15.04;46.49;94068.47;5000131;28;20391;-76
2023/10/24 00:14:48;;;;;;;7.43;2.88;;;;;;;15.06;46.43;94065.44;5015200;28;20420;-77
2023/10/24 00:17:14;;;;;;;6.95;2.28;;;;;;;15.21;46.56;94078.16;5014939;28;20052;-76
2023/10/24 00:19:39;;;;;;;9.73;2.20;;;;;;;15.13;46.32;94068.34;5017423;28;20445;-77
2023/10/24 00:22:05;;;;;;;3.75;1.77;;;;;;;14.94;46.70;94057.41;5017349;28;20048;-76
2023/10/24 00:24:30;;;;;;;10.50;1.90;;;;;;;15.02;46.87;94075.25;5002629;28;20029;-76
2023/10/24 00:26:57;;;;;;;9.40;3.58;;;;;;;14.95;47.14;94064.34;5016625;28;20143;-76
2023/10/24 00:29:23;;;;;;;7.90;1.90;;;;;;;14.95;46.97;94064.34;5019506;28;20092;-76
2023/10/24 00:31:48;;;;;;;5.95;2.25;;;;;;;14.89;46.59;94065.66;5020966;28;20151;-77
2023/10/24 00:34:13;;;;;;;8.25;2.17;;;;;;;14.76;46.40;94056.84;5019030;28;20033;-77
2023/10/24 00:36:41;;;;;;;5.32;1.73;;;;;;;14.81;46.55;94064.66;5018707;28;20156;-77
2023/10/24 00:39:08;;;;;;;5.63;1.40;;;;;;;14.81;46.42;94061.19;5020803;28;20623;-77
2023/10/24 00:41:33;;;;;;;4.68;1.40;;;;;;;14.49;46.11;94030.66;5018290;28;20103;-77
2023/10/24 00:43:59;;;;;;;3.95;1.25;;;;;;;14.63;46.47;94057.13;5017298;28;20543;-76
2023/10/24 00:46:24;;;;;;;8.45;1.35;;;;;;;14.57;46.35;94065.38;5022613;28;20141;-77
2023/10/24 00:48:50;;;;;;;7.75;1.48;;;;;;;14.56;46.61;94063.84;5019568;28;20041;-77
2023/10/24 00:51:16;;;;;;;7.70;2.40;;;;;;;14.43;47.12;94058.72;5020381;28;20037;-76
2023/10/24 00:53:42;;;;;;;10.05;2.78;;;;;;;14.25;47.51;94044.75;5018533;28;20044;-76
2023/10/24 00:56:09;;;;;;;10.48;2.92;;;;;;;14.29;47.39;94036.84;5021418;28;20056;-76
2023/10/24 00:58:38;;;;;;;4.68;2.03;;;;;;;14.23;47.54;94036.25;5016948;28;20029;-76
2023/10/24 01:01:08;;;;;;;8.05;2.10;;;;;;;14.51;47.72;94074.72;5020539;28;20034;-76
2023/10/24 01:03:33;;;;;;;7.50;2.08;;;;;;;14.43;47.75;94070.22;5019743;28;20037;-76
2023/10/24 01:05:59;;;;;;;8.02;2.58;;;;;;;14.33;48.16;94059.94;5019132;28;20056;-76
2023/10/24 01:08:24;;;;;;;8.77;2.50;;;;;;;14.37;48.16;94065.44;5020522;28;20033;-76
2023/10/24 01:10:50;;;;;;;9.52;1.80;;;;;;;14.40;47.84;94059.41;5017649;28;20037;-76
2023/10/24 01:13:16;;;;;;;9.85;2.00;;;;;;;14.39;47.50;94055.94;5017372;28;20020;-76
2023/10/24 01:15:41;;;;;;;6.60;2.17;;;;;;;14.35;47.57;94046.22;5002310;28;20057;-77
2023/10/24 01:18:06;;;;;;;10.23;2.83;;;;;;;14.37;48.07;94057.41;5018817;28;20549;-77
2023/10/24 01:20:32;;;;;;;7.93;2.60;;;;;;;14.42;48.23;94068.66;5020048;28;20292;-77
2023/10/24 01:22:57;;;;;;;14.40;3.70;;;;;;;14.34;48.15;94056.16;5019147;28;20029;-76
2023/10/24 01:25:24;;;;;;;11.50;2.42;;;;;;;14.32;48.08;94062.97;5018904;28;20025;-76
2023/10/24 01:27:53;;;;;;;7.85;1.98;;;;;;;14.23;47.53;94051.56;5018128;28;21031;-75
2023/10/24 01:30:19;;;;;;;7.57;2.08;;;;;;;14.07;47.96;94054.06;5019877;28;20052;-76
2023/10/24 01:32:45;;;;;;;4.68;1.75;;;;;;;14.22;48.53;94068.72;5016821;28;20559;-77
2023/10/24 01:35:12;;;;;;;9.25;2.65;;;;;;;14.22;48.44;94061.47;5019873;28;20061;-77
2023/10/24 01:37:37;;;;;;;10.30;2.60;;;;;;;14.10;48.25;94034.69;5020525;28;20072;-76
2023/10/24 01:40:06;;;;;;;13.73;4.45;;;;;;;14.14;48.98;94046.28;5017641;28;20799;-76
2023/10/24 01:42:32;;;;;;;12.70;3.65;;;;;;;13.99;48.78;94012.91;5017107;28;20088;-76
2023/10/24 01:44:57;;;;;;;17.63;3.47;;;;;;;14.18;48.82;94036.47;5016216;28;20038;-77
2023/10/24 01:47:23;;;;;;;13.52;3.65;;;;;;;14.23;48.25;94033.59;5018725;28;20499;-76
2023/10/24 01:49:48;;;;;;;9.75;2.53;;;;;;;14.38;47.76;94054.38;5018455;28;20018;-76
2023/10/24 01:52:13;;;;;;;10.63;3.55;;;;;;;14.35;48.04;94055.03;5000665;28;20943;-76
2023/10/24 01:54:39;;;;;;;10.82;3.35;;;;;;;14.31;47.97;94046.13;5013089;28;20079;-76
2023/10/24 01:57:05;;;;;;;8.02;2.53;;;;;;;14.24;48.02;94045.88;5017664;28;20045;-76
2023/10/24 01:59:31;;;;;;;11.23;3.10;;;;;;;14.17;47.89;94040.28;5019057;28;20037;-76
2023/10/24 02:01:56;;;;;;;12.27;2.72;;;;;;;14.07;48.07;94040.69;5018222;28;20033;-76
2023/10/24 02:04:21;;;;;;;9.52;1.67;;;;;;;14.16;48.10;94060.91;5019797;28;21005;-76
2023/10/24 02:06:47;;;;;;;10.13;2.58;;;;;;;14.07;48.11;94035.34;5000652;28;20033;-76
2023/10/24 02:09:13;;;;;;;9.30;2.10;;;;;;;14.07;48.06;94041.47;5017070;28;20075;-77
2023/10/24 02:11:38;;;;;;;3.67;1.85;;;;;;;13.97;47.81;94019.72;5015966;28;20037;-76
2023/10/24 02:14:04;;;;;;;8.57;1.88;;;;;;;14.11;47.48;94042.38;5020318;28;20691;-76
2023/10/24 02:16:29;;;;;;;9.23;1.90;;;;;;;14.00;47.22;94022.50;5015089;28;20091;-78
2023/10/24 02:18:54;;;;;;;8.60;1.48;;;;;;;13.95;47.61;94029.94;5018207;28;20034;-78
2023/10/24 02:21:20;;;;;;;8.13;1.60;;;;;;;13.68;47.90;94005.34;5017597;28;20065;-78
2023/10/24 02:23:45;;;;;;;3.50;1.30;;;;;;;13.71;48.40;94023.38;5016683;28;20080;-78
2023/10/24 02:26:14;;;;;;;5.40;1.75;;;;;;;13.83;48.74;94051.28;5018142;28;21173;-78
2023/10/24 02:28:40;;;;;;;5.70;1.70;;;;;;;13.65;48.97;94038.03;5018056;28;20036;-77
2023/10/24 02:31:05;;;;;;;8.98;1.67;;;;;;;13.57;49.00;94027.41;5018674;28;20038;-77
2023/10/24 02:33:31;;;;;;;7.78;2.58;;;;;;;13.69;48.93;94052.31;4999432;28;20040;-78
2023/10/24 02:36:07;;;;;;;9.50;2.28;;;;;;;13.64;49.14;94047.16;5017973;28;20029;-77
2023/10/24 02:38:33;;;;;;;5.97;2.85;;;;;;;13.56;49.43;94039.19;5014319;28;20095;-78
2023/10/24 02:40:58;;;;;;;11.20;1.83;;;;;;;13.51;49.07;94039.38;5017360;28;20653;-77
2023/10/24 02:43:24;;;;;;;6.70;1.45;;;;;;;13.42;48.84;94020.75;5017347;28;20108;-78
2023/10/24 02:45:49;;;;;;;6.07;2.33;;;;;;;13.53;48.75;94048.66;5018657;28;20035;-78
2023/10/24 02:48:14;;;;;;;6.25;1.58;;;;;;;13.50;49.35;94064.53;5017285;28;20042;-77
2023/10/24 02:50:43;;;;;;;7.70;1.40;;;;;;;13.39;49.23;94042.78;5000396;28;20095;-77
2023/10/24 02:53:09;;;;;;;10.20;2.13;;;;;;;13.49;49.31;94063.78;5018956;28;20053;-77
2023/10/24 02:55:34;;;;;;;8.05;1.52;;;;;;;13.43;49.97;94054.38;4997668;28;20144;-78
2023/10/24 02:58:00;;;;;;;11.18;1.83;;;;;;;13.45;50.23;94054.03;4996189;28;20403;-77
2023/10/24 03:00:25;;;;;;;8.93;1.90;;;;;;;13.55;50.43;94073.13;5016747;28;20154;-78
2023/10/24 03:02:50;;;;;;;5.65;1.92;;;;;;;13.36;50.56;94064.00;4995342;28;20640;-78
2023/10/24 03:05:16;;;;;;;7.38;2.08;;;;;;;13.34;50.40;94067.00;5016536;28;20396;-78
2023/10/24 03:07:41;;;;;;;5.60;1.63;;;;;;;13.21;50.24;94057.31;5000493;28;20503;-77
2023/10/24 03:10:07;;;;;;;7.10;1.52;;;;;;;13.41;50.14;94072.59;5003546;28;20045;-78
2023/10/24 03:12:33;;;;;;;6.90;1.75;;;;;;;13.21;50.21;94052.00;5016175;28;20030;-77
2023/10/24 03:14:58;;;;;;;5.25;1.33;;;;;;;13.25;50.37;94077.72;5014940;28;20144;-77
2023/10/24 03:17:24;;;;;;;2.60;1.25;;;;;;;13.22;50.55;94080.25;5018052;28;20650;-76
2023/10/24 03:19:49;;;;;;;4.43;1.00;;;;;;;13.15;50.39;94083.44;5002674;28;20060;-78
2023/10/24 03:22:14;;;;;;;6.78;1.85;;;;;;;13.02;50.71;94067.63;5017596;28;20037;-78
2023/10/24 03:24:40;;;;;;;5.82;2.25;;;;;;;13.04;50.60;94078.78;5014912;28;20087;-77
2023/10/24 03:27:07;;;;;;;5.10;1.67;;;;;;;13.04;50.62;94068.13;5018198;28;20041;-77
2023/10/24 03:29:35;;;;;;;6.25;1.55;;;;;;;12.91;50.95;94069.88;5014666;28;20037;-77
2023/10/24 03:32:02;;;;;;;7.18;2.05;;;;;;;13.00;51.06;94093.91;5017510;28;20071;-78
2023/10/24 03:34:28;;;;;;;12.18;2.15;;;;;;;13.03;51.17;94099.38;4997960;28;20017;-77
2023/10/24 03:36:53;;;;;;;5.45;1.88;;;;;;;13.14;50.80;94099.78;4994665;28;20037;-77
2023/10/24 03:39:18;;;;;;;5.10;2.00;;;;;;;12.87;51.29;94064.41;4999526;28;20064;-76
2023/10/24 03:41:44;;;;;;;6.32;1.65;;;;;;;13.07;50.98;94096.84;5015808;28;20048;-77
2023/10/24 03:44:09;;;;;;;6.68;1.63;;;;;;;12.95;50.85;94080.72;5015692;28;20379;-77
2023/10/24 03:46:34;;;;;;;6.88;1.55;;;;;;;13.05;50.86;94091.84;5002597;28;20036;-77
2023/10/24 03:49:00;;;;;;;10.20;1.83;;;;;;;13.02;50.37;94086.31;5017481;28;20352;-77
2023/10/24 03:51:25;;;;;;;7.88;2.38;;;;;;;12.92;50.39;94079.47;5014479;28;20044;-78
2023/10/24 03:53:51;;;;;;;8.00;1.92;;;;;;;12.71;50.60;94060.69;5000328;28;21047;-77
2023/10/24 03:56:16;;;;;;;10.48;2.17;;;;;;;12.16;51.11;94002.03;5015404;28;20041;-77
2023/10/24 03:58:41;;;;;;;8.90;2.33;;;;;;;12.75;50.93;94085.66;5016739;28;20032;-77
2023/10/24 04:01:07;;;;;;;7.03;2.13;;;;;;;12.79;51.17;94083.13;5015031;28;20033;-77
2023/10/24 04:03:32;;;;;;;14.00;2.25;;;;;;;12.94;51.08;94105.84;5016530;28;20496;-78
2023/10/24 04:05:58;;;;;;;9.68;2.50;;;;;;;12.91;50.93;94106.50;5015003;28;20030;-78
2023/10/24 04:08:23;;;;;;;8.38;2.70;;;;;;;12.89;51.03;94099.59;5016549;28;20038;-77
2023/10/24 04:10:48;;;;;;;9.45;1.80;;;;;;;12.82;51.44;94085.16;5016425;28;20064;-78
2023/10/24 04:13:14;;;;;;;7.80;2.47;;;;;;;12.80;51.20;94095.38;5015787;28;20068;-77
2023/10/24 04:15:39;;;;;;;6.32;1.58;;;;;;;12.77;51.60;94107.47;5015300;28;20041;-77
2023/10/24 04:18:05;;;;;;;8.63;1.55;;;;;;;12.54;51.92;94095.44;4999505;28;20037;-77
2023/10/24 04:20:31;;;;;;;3.78;1.33;;;;;;;12.19;52.18;94059.25;5000317;28;20441;-77
2023/10/24 04:23:01;;;;;;;10.18;2.03;;;;;;;12.49;52.25;94106.25;5014511;28;20860;-78
2023/10/24 04:25:28;;;;;;;8.88;1.80;;;;;;;12.30;52.35;94087.94;5016137;28;20032;-76
2023/10/24 04:27:54;;;;;;;6.40;1.90;;;;;;;12.37;52.48;94092.81;5012797;28;20029;-77
2023/10/24 04:30:19;;;;;;;7.68;2.33;;;;;;;12.34;52.64;94114.75;4999429;28;20419;-77
2023/10/24 04:32:44;;;;;;;7.22;2.00;;;;;;;12.39;53.14;94122.59;5015529;28;20383;-77
2023/10/24 04:35:10;;;;;;;9.02;2.50;;;;;;;12.42;52.66;94105.94;4998525;28;20034;-78
2023/10/24 04:37:35;;;;;;;12.07;1.98;;;;;;;12.51;53.36;94120.09;5016848;28;20091;-77
2023/10/24 04:40:01;;;;;;;6.55;3.22;;;;;;;12.35;53.46;94111.78;4998380;28;20053;-78
2023/10/24 04:42:26;;;;;;;11.38;2.35;;;;;;;12.43;52.95;94118.19;5000531;28;20117;-77
2023/10/24 04:44:51;;;;;;;7.70;2.10;;;;;;;12.36;53.21;94112.56;5013230;28;20065;-77
2023/10/24 04:47:17;;;;;;;7.00;2.00;;;;;;;12.44;53.38;94133.09;5015697;28;20037;-77
2023/10/24 04:49:42;;;;;;;12.95;2.60;;;;;;;12.36;53.18;94129.38;5013904;28;20078;-78
2023/10/24 04:52:07;;;;;;;6.75;2.67;;;;;;;12.27;53.55;94130.47;5015337;28;20041;-78
2023/10/24 04:54:33;;;;;;;10.10;2.28;;;;;;;12.36;53.04;94124.03;5013440;28;20407;-77
2023/10/24 04:57:00;;;;;;;5.43;2.38;;;;;;;12.46;53.30;94117.59;4999385;28;20029;-77
2023/10/24 04:59:26;;;;;;;9.20;2.15;;;;;;;12.47;53.21;94130.59;5017585;28;20050;-77
2023/10/24 05:01:52;;;;;;;5.22;2.10;;;;;;;12.46;53.26;94138.91;5021573;28;20080;-78
2023/10/24 05:04:18;;;;;;;8.18;2.10;;;;;;;12.46;53.49;94149.59;5021960;28;20048;-78
2023/10/24 05:06:44;;;;;;;11.75;2.55;;;;;;;12.37;53.71;94148.81;5022492;28;20478;-79
2023/10/24 05:09:10;;;;;;;7.68;2.08;;;;;;;12.40;53.58;94151.63;5005331;28;20486;-78
2023/10/24 05:11:39;;;;;;;11.18;2.78;;;;;;;12.19;54.22;94144.56;5013230;28;20033;-78
2023/10/24 05:14:05;;;;;;;6.13;2.22;;;;;;;12.30;54.31;94167.16;5025823;28;20040;-76
2023/10/24 05:16:31;;;;;;;9.75;2.90;;;;;;;12.28;54.94;94156.03;5009019;28;20041;-77
2023/10/24 05:18:57;;;;;;;15.27;3.90;;;;;;;12.36;54.66;94160.59;5007737;28;20037;-77
2023/10/24 05:21:22;;;;;;;9.45;3.67;;;;;;;12.46;54.66;94173.59;5003882;28;20033;-76
2023/10/24 05:23:48;;;;;;;12.93;4.00;;;;;;;12.49;54.75;94172.97;5018826;28;20033;-77
2023/10/24 05:26:13;;;;;;;17.80;4.97;;;;;;;12.49;54.39;94159.63;5016273;28;20033;-76
2023/10/24 05:28:39;;;;;;;14.90;4.78;;;;;;;12.58;54.78;94173.75;5016737;28;20461;-76
2023/10/24 05:31:07;;;;;;;15.38;5.00;;;;;;;12.52;54.98;94153.63;5016771;28;20048;-78
2023/10/24 05:33:33;;;;;;;14.93;3.38;;;;;;;12.67;54.68;94171.06;5004661;28;20555;-77
2023/10/24 05:35:58;;;;;;;16.35;4.55;;;;;;;12.62;54.90;94169.34;5013356;28;20724;-77
2023/10/24 05:38:24;;;;;;;15.20;4.03;;;;;;;12.71;54.70;94178.13;4993508;28;20515;-77
2023/10/24 05:40:49;;;;;;;15.88;3.65;;;;;;;12.71;55.03;94170.13;5001390;28;20029;-76
2023/10/24 05:43:15;;;;;;;12.15;3.47;;;;;;;12.71;55.15;94177.38;5009061;28;20571;-77
2023/10/24 05:45:40;;;;;;;11.77;4.22;;;;;;;12.71;55.14;94172.78;5018310;28;20035;-77
2023/10/24 05:48:05;;;;;;;12.95;4.75;;;;;;;12.85;54.91;94176.06;5016334;28;20065;-76
2023/10/24 05:50:31;;;;;;;16.85;4.03;;;;;;;12.95;54.94;94176.84;5014268;28;20106;-77
2023/10/24 05:52:56;;;;;;;18.65;4.57;;;;;;;12.95;54.67;94166.94;5013904;28;20025;-76
2023/10/24 05:55:22;;;;;;;10.07;3.78;;;;;;;13.17;54.95;94179.25;5021832;28;20752;-76
2023/10/24 05:57:47;;;;;;;20.88;4.50;;;;;;;13.19;55.01;94172.50;5027080;28;20037;-76
2023/10/24 06:00:13;;;;;;;14.07;4.03;;;;;;;13.28;55.12;94175.13;5026336;28;20034;-78
2023/10/24 06:02:39;;;;;;;14.43;6.07;;;;;;;13.30;54.81;94154.22;5016495;28;20556;-77
2023/10/24 06:05:04;;;;;;;14.35;5.70;;;;;;;13.56;54.65;94170.91;5011906;28;20036;-77
2023/10/24 06:07:30;;;;;;;22.23;6.05;;;;;;;13.60;54.38;94171.06;5017825;28;20530;-77
2023/10/24 06:09:55;;;;;;;23.10;6.80;;;;;;;13.68;54.48;94172.94;4997428;28;20034;-76
2023/10/24 06:12:20;;;;;;;16.83;6.68;;;;;;;13.71;54.84;94167.72;5015772;28;20343;-76
2023/10/24 06:14:46;;;;;;;16.85;7.18;;;;;;;13.66;54.90;94169.78;5013648;28;20128;-77
2023/10/24 06:17:17;;;;;;;17.33;7.10;;;;;;;13.65;54.83;94179.69;4999220;28;20838;-77
2023/10/24 06:19:43;;;;;;;14.43;7.93;;;;;;;13.53;55.07;94174.25;5018543;28;20495;-77
2023/10/24 06:22:08;;;;;;;18.65;6.80;;;;;;;13.46;55.38;94189.97;5015472;28;20511;-76
2023/10/24 06:24:34;;;;;;;25.33;8.75;;;;;;;13.48;54.69;94178.97;5010161;28;20037;-76
2023/10/24 06:27:00;;;;;;;30.02;10.30;;;;;;;13.64;54.45;94172.03;5012453;28;20034;-76
2023/10/24 06:29:25;;;;;;;31.55;10.35;;;;;;;13.80;54.56;94180.25;5019199;28;20099;-77
2023/10/24 06:31:51;;;;;;;20.75;7.93;;;;;;;13.79;54.41;94160.75;5014180;28;20812;-76
2023/10/24 06:34:16;;;;;;;27.40;8.88;;;;;;;13.66;54.78;94164.44;5019311;28;20033;-76
2023/10/24 06:36:42;;;;;;;25.63;9.02;;;;;;;13.73;55.15;94184.22;5015987;28;20052;-76
2023/10/24 06:39:08;;;;;;;27.55;10.65;;;;;;;13.74;55.00;94172.41;5019140;28;20431;-76
2023/10/24 06:41:33;;;;;;;25.48;7.63;;;;;;;13.77;54.51;94154.94;5000065;28;20030;-76
2023/10/24 06:43:59;;;;;;;26.40;9.27;;;;;;;13.96;54.37;94173.22;5017939;28;20025;-77
2023/10/24 06:46:24;;;;;;;33.40;9.68;;;;;;;14.10;53.99;94179.09;5000625;28;20684;-76
2023/10/24 06:48:52;;;;;;;29.30;8.73;;;;;;;14.16;53.66;94177.81;5016947;28;20650;-76
2023/10/24 06:51:17;;;;;;;26.33;10.27;;;;;;;14.15;54.10;94186.94;5016324;28;20037;-77
2023/10/24 06:53:42;;;;;;;22.73;9.02;;;;;;;14.02;54.04;94148.66;4999272;28;20041;-77
2023/10/24 06:56:08;;;;;;;33.80;10.15;;;;;;;14.35;53.97;94182.69;5000266;28;20256;-77
2023/10/24 06:58:33;;;;;;;26.35;9.63;;;;;;;14.38;53.19;94179.34;5015562;28;20052;-77
2023/10/24 07:00:58;;;;;;;26.88;9.57;;;;;;;14.42;53.66;94178.38;5011466;28;20034;-77
2023/10/24 07:03:24;;;;;;;19.95;8.25;;;;;;;14.56;53.49;94170.91;5016344;28;20124;-77
2023/10/24 07:05:51;;;;;;;33.03;9.35;;;;;;;14.51;52.42;94159.56;5013790;28;20064;-77
2023/10/24 07:08:17;;;;;;;25.45;9.73;;;;;;;14.58;52.21;94157.16;5015223;28;20041;-77
2023/10/24 07:10:42;;;;;;;26.10;9.23;;;;;;;14.67;52.71;94159.78;5015821;28;20107;-76
2023/10/24 07:13:07;;;;;;;29.52;8.88;;;;;;;14.79;52.98;94162.47;5013541;28;20033;-77
2023/10/24 07:15:33;;;;;;;28.55;9.07;;;;;;;14.52;52.79;94110.28;4996453;28;20601;-77
2023/10/24 07:17:58;;;;;;;24.08;8.45;;;;;;;14.78;52.65;94160.91;5016508;28;20043;-78
2023/10/24 07:20:23;;;;;;;23.90;10.15;;;;;;;14.68;53.06;94146.03;5014977;28;20037;-77
2023/10/24 07:22:49;;;;;;;33.05;9.75;;;;;;;14.85;53.33;94161.16;5002454;28;20395;-78
2023/10/24 07:25:15;;;;;;;28.17;10.75;;;;;;;14.77;53.68;94164.69;5021806;28;20033;-78
2023/10/24 07:27:40;;;;;;;27.38;9.38;;;;;;;14.78;53.56;94134.91;5027402;28;20045;-77
2023/10/24 07:30:09;;;;;;;22.23;9.82;;;;;;;15.00;53.66;94155.16;5016311;28;20071;-77
2023/10/24 07:32:34;;;;;;;25.65;10.05;;;;;;;14.97;53.52;94153.13;5013085;28;20496;-77
2023/10/24 07:34:59;;;;;;;27.20;10.85;;;;;;;15.15;53.19;94146.50;4997388;28;20031;-77
2023/10/24 07:37:25;;;;;;;23.70;9.05;;;;;;;15.04;52.60;94129.28;4999859;28;20025;-77
2023/10/24 07:39:50;;;;;;;21.65;9.20;;;;;;;15.10;52.97;94136.00;5016196;28;20029;-77
2023/10/24 07:42:15;;;;;;;22.52;9.23;;;;;;;14.99;52.68;94129.50;5016188;28;20038;-76
2023/10/24 07:44:41;;;;;;;22.02;10.02;;;;;;;15.19;52.64;94139.34;5015172;28;20037;-77
2023/10/24 07:47:07;;;;;;;24.00;8.52;;;;;;;15.16;52.63;94123.13;5016238;28;20021;-77
2023/10/24 07:49:35;;;;;;;29.38;8.90;;;;;;;15.17;53.28;94130.84;5016154;28;20215;-77
2023/10/24 07:52:01;;;;;;;17.58;7.45;;;;;;;15.13;53.08;94116.56;5016385;28;20041;-77
2023/10/24 07:54:28;;;;;;;22.67;8.48;;;;;;;15.31;52.20;94120.59;5014832;28;20578;-77
2023/10/24 07:56:54;;;;;;;29.08;7.38;;;;;;;15.53;51.32;94124.75;5014424;28;20546;-77
2023/10/24 07:59:19;;;;;;;28.38;8.80;;;;;;;15.59;51.97;94120.75;4998488;28;20044;-77
2023/10/24 08:01:45;;;;;;;26.08;7.63;;;;;;;15.58;51.78;94102.28;5015298;28;20132;-77
2023/10/24 08:04:10;;;;;;;28.13;8.07;;;;;;;15.79;50.92;94127.09;5004493;28;20849;-77
2023/10/24 08:06:35;;;;;;;21.50;7.10;;;;;;;15.75;50.49;94118.13;5014405;28;20033;-76
2023/10/24 08:09:01;;;;;;;22.42;8.77;;;;;;;15.57;50.42;94122.19;5016222;28;20561;-76
2023/10/24 08:11:26;;;;;;;24.52;8.63;;;;;;;15.54;50.68;94122.84;5015242;28;20095;-76
2023/10/24 08:13:52;;;;;;;31.98;7.78;;;;;;;15.73;50.94;94147.19;5013286;28;20585;-76
2023/10/24 08:16:20;;;;;;;27.70;7.65;;;;;;;15.73;50.21;94136.47;4997426;28;20060;-76
2023/10/24 08:18:45;;;;;;;24.50;6.88;;;;;;;15.64;50.01;94090.22;5015135;28;20508;-77
2023/10/24 08:21:12;;;;;;;24.73;7.60;;;;;;;15.94;49.88;94120.25;5013132;28;20239;-76
2023/10/24 08:23:38;;;;;;;26.67;9.48;;;;;;;15.80;49.69;94117.91;5014001;28;20171;-76
2023/10/24 08:26:03;;;;;;;29.88;9.30;;;;;;;16.06;49.84;94130.91;5015473;28;20034;-76
2023/10/24 08:28:29;;;;;;;29.58;8.48;;;;;;;16.03;49.61;94118.19;5012486;28;20483;-76
2023/10/24 08:30:54;;;;;;;23.60;8.15;;;;;;;16.18;49.07;94099.47;5009499;28;20133;-76
2023/10/24 08:33:20;;;;;;;19.80;8.48;;;;;;;16.54;48.63;94117.34;4983144;28;20037;-75
2023/10/24 08:35:47;;;;;;;27.65;8.40;;;;;;;16.48;47.65;94097.25;5001709;28;20049;-77
2023/10/24 08:38:12;;;;;;;24.65;8.60;;;;;;;16.58;48.10;94102.13;5006471;28;20111;-77
2023/10/24 08:40:40;;;;;;;23.73;8.00;;;;;;;16.54;48.37;94084.34;5004042;28;20025;-77
2023/10/24 08:43:06;;;;;;;21.60;9.60;;;;;;;16.70;49.22;94093.22;5007106;28;20040;-77
2023/10/24 08:45:32;;;;;;;20.63;7.90;;;;;;;16.78;49.44;94084.22;5007379;28;21021;-76
2023/10/24 08:47:59;;;;;;;26.35;7.93;;;;;;;16.73;48.80;94092.53;5007531;28;20026;-77
2023/10/24 08:50:25;;;;;;;23.85;9.23;;;;;;;16.67;48.10;94080.50;5017911;28;20057;-77
2023/10/24 08:52:52;;;;;;;20.45;7.82;;;;;;;16.72;48.19;94078.31;5007853;28;20051;-77
2023/10/24 08:55:19;;;;;;;26.92;8.65;;;;;;;16.91;48.26;94088.41;5002534;28;20547;-77
2023/10/24 08:57:45;;;;;;;22.23;6.55;;;;;;;16.35;48.29;94038.59;4990083;28;20043;-78
2023/10/24 09:00:14;;;;;;;27.45;8.95;;;;;;;16.70;47.84;94066.38;5005833;28;20035;-77
2023/10/24 09:02:44;;;;;;;25.63;11.35;;;;;;;17.01;47.67;94082.50;4990062;28;20041;-77
2023/10/24 09:05:11;;;;;;;25.63;8.40;;;;;;;16.73;48.57;94073.72;5014006;28;20076;-78
2023/10/24 09:07:36;;;;;;;24.55;8.55;;;;;;;16.86;47.84;94064.50;4982383;28;20037;-76
2023/10/24 09:10:05;;;;;;;30.25;7.78;;;;;;;17.20;47.70;94073.78;4990835;28;20034;-76
2023/10/24 09:12:32;;;;;;;30.05;8.75;;;;;;;17.33;46.62;94074.47;5006192;28;20659;-77
2023/10/24 09:14:58;;;;;;;27.40;7.40;;;;;;;17.27;46.12;94068.56;5008019;28;20045;-77
2023/10/24 09:17:25;;;;;;;23.05;7.18;;;;;;;17.47;47.01;94061.34;5010418;28;20124;-77
2023/10/24 09:19:51;;;;;;;20.27;7.18;;;;;;;17.62;46.19;94060.53;5008476;28;20366;-77
2023/10/24 09:22:17;;;;;;;20.67;7.32;;;;;;;17.67;46.65;94068.31;4993672;28;20053;-77
2023/10/24 09:24:47;;;;;;;21.33;5.93;;;;;;;17.53;45.90;94038.44;4978064;28;20095;-77
2023/10/24 09:27:14;;;;;;;28.63;6.90;;;;;;;17.54;45.64;94048.84;5006777;28;20152;-77
2023/10/24 09:29:40;;;;;;;24.38;6.57;;;;;;;17.76;45.33;94052.75;5005090;28;20033;-76
2023/10/24 09:32:06;;;;;;;29.83;7.53;;;;;;;17.43;46.11;94017.47;5009658;28;20740;-77
2023/10/24 09:34:33;;;;;;;18.35;7.38;;;;;;;17.45;45.46;94058.97;5009185;28;20530;-76
2023/10/24 09:37:10;;;;;;;19.33;6.03;;;;;;;17.68;46.67;94056.44;5007569;28;20041;-76
2023/10/24 09:40:00;;;;;;;25.50;6.90;;;;;;;17.71;46.34;94058.41;4986994;28;20037;-77
2023/10/24 09:42:26;;;;;;;23.27;6.07;;;;;;;17.73;45.73;94056.16;5010304;28;20164;-77
2023/10/24 09:44:57;;;;;;;18.30;5.65;;;;;;;17.73;44.27;94040.03;5008344;28;20048;-77
2023/10/24 09:47:23;;;;;;;32.95;8.20;;;;;;;17.76;44.81;94050.06;5003782;28;20050;-77
2023/10/24 09:49:53;;;;;;;18.33;5.22;;;;;;;17.92;44.82;94033.88;5007146;28;20028;-77
2023/10/24 09:52:20;;;;;;;21.65;7.65;;;;;;;17.96;45.39;94043.59;5007912;28;20037;-77
2023/10/24 09:54:50;;;;;;;23.20;7.32;;;;;;;17.94;44.76;94029.72;5004722;28;20117;-76
2023/10/24 09:57:22;;;;;;;22.95;6.90;;;;;;;17.98;44.50;94038.66;5006942;28;20041;-77
2023/10/24 09:59:55;;;;;;;25.05;6.00;;;;;;;18.12;45.14;94037.38;5008812;28;20081;-76
2023/10/24 10:02:23;;;;;;;19.38;6.25;;;;;;;17.87;44.06;94021.47;4990787;28;20033;-76
2023/10/24 10:04:49;;;;;;;22.98;5.57;;;;;;;17.89;44.59;94013.81;5007830;28;20029;-76
2023/10/24 10:07:16;;;;;;;16.70;6.55;;;;;;;17.90;44.05;93996.56;4992142;28;20083;-76
2023/10/24 10:09:46;;;;;;;19.17;5.60;;;;;;;18.26;44.17;94033.03;4988050;28;20045;-77
2023/10/24 10:12:13;;;;;;;28.58;6.25;;;;;;;18.28;44.29;94036.19;5008166;28;20953;-77
2023/10/24 10:14:47;;;;;;;14.57;5.80;;;;;;;18.21;44.63;94029.84;5008364;28;20121;-78
2023/10/24 10:17:25;;;;;;;18.17;6.07;;;;;;;18.50;43.50;94021.16;5005348;28;20621;-77
2023/10/24 10:20:09;;;;;;;21.60;7.13;;;;;;;18.68;43.32;94016.88;5006516;28;20732;-76
2023/10/24 10:23:03;;;;;;;19.23;6.37;;;;;;;18.69;43.49;93980.72;5006779;28;20373;-77
2023/10/24 10:26:06;;;;;;;18.63;5.57;;;;;;;18.65;43.70;94012.22;4992184;28;20035;-77
2023/10/24 10:28:59;;;;;;;30.17;7.88;;;;;;;18.74;43.50;93999.31;5008426;28;20091;-76
2023/10/24 10:31:54;;;;;;;26.25;6.75;;;;;;;18.94;43.45;93997.31;5004319;28;20042;-77
2023/10/24 10:34:36;;;;;;;20.75;7.18;;;;;;;18.84;43.30;93993.31;5007225;28;20049;-76
2023/10/24 10:37:02;;;;;;;20.85;6.43;;;;;;;18.83;42.77;93985.59;5008274;28;20507;-77
2023/10/24 10:39:29;;;;;;;24.70;6.68;;;;;;;18.84;43.31;93982.53;5003862;28;20041;-77
2023/10/24 10:41:54;;;;;;;17.08;6.30;;;;;;;18.67;43.57;93966.84;5006430;28;20375;-78
2023/10/24 10:44:43;;;;;;;25.50;7.03;;;;;;;18.65;43.45;93979.88;5006102;28;20076;-77
2023/10/24 10:47:12;;;;;;;29.25;7.95;;;;;;;18.44;44.22;93952.59;5005699;28;20071;-77
2023/10/24 10:49:47;;;;;;;27.88;7.65;;;;;;;18.52;43.74;93965.06;5007673;28;20026;-77
2023/10/24 10:52:34;;;;;;;26.17;7.82;;;;;;;18.69;44.00;93969.94;4987596;28;20033;-77
2023/10/24 10:55:38;;;;;;;22.40;6.95;;;;;;;18.72;43.06;93953.09;4988269;28;20029;-77
2023/10/24 10:58:16;;;;;;;23.13;6.15;;;;;;;18.41;43.41;93937.16;5008623;28;20083;-77
2023/10/24 11:01:00;;;;;;;22.60;7.43;;;;;;;18.83;43.21;93947.84;5004593;28;20507;-77
2023/10/24 11:03:37;;;;;;;19.58;5.50;;;;;;;18.96;42.96;93934.97;5004608;28;20037;-77
2023/10/24 11:06:09;;;;;;;17.48;4.82;;;;;;;19.17;41.37;93943.34;5006618;28;20407;-77
2023/10/24 11:08:34;;;;;;;22.45;5.80;;;;;;;19.30;41.06;93925.84;4985201;28;20041;-77
2023/10/24 11:11:04;;;;;;;28.52;6.35;;;;;;;19.27;42.03;93915.75;5004738;28;20044;-77
2023/10/24 11:13:53;;;;;;;22.40;5.65;;;;;;;19.48;41.83;93918.78;5006793;28;20503;-77
2023/10/24 11:16:18;;;;;;;23.50;5.88;;;;;;;19.43;41.29;93902.09;5005916;28;20111;-77
2023/10/24 11:18:45;;;;;;;23.80;6.28;;;;;;;19.39;41.39;93910.16;5002639;28;20033;-77
2023/10/24 11:21:12;;;;;;;18.98;5.25;;;;;;;19.51;40.97;93901.84;4988967;28;20127;-77
2023/10/24 11:23:41;;;;;;;25.77;6.28;;;;;;;19.43;41.26;93885.94;5005429;28;20050;-77
2023/10/24 11:26:08;;;;;;;21.17;6.13;;;;;;;19.20;41.58;93896.81;5005054;28;20215;-77